British Trader — ZIPR7 — position and weather

sailwx.info

Track history (hours):
 
Tides and Currents Weather Stations Pressure Air Temp Water Temp Dewpoint Dewpoint Depression Visibility Wind Speed Wind Dir Waves Ship Positions

British Trader

Last reported at 2019-Jan-05 05:32 UTC. Time now 2019-Feb-16 07:05 UTC.
Position N 33°49' E 134°55'.
Warning: this ship's position is 42 days out of date.

Length 278.9 m; beam 42.6 m; draft 12.1 m.

Type: Ship (hazmat cat A). MMSI: 235496000.

Date/timePositionNaut miles runAvg speedWind from/ knotsBaromVisibWave heightAir tempDewpointWater temp
2019-Jan-05 05:32N 33°49' E 134°55'018.2
2019-Jan-05 05:31N 33°49' E 134°55'917.8
2019-Jan-05 05:01N 33°58' E 134°56'817.0
2019-Jan-05 04:31N 34°07' E 134°57'713.9
2019-Jan-05 04:00N 34°14' E 134°58'612.3
2019-Jan-05 03:31N 34°20' E 134°60'714.0
2019-Jan-05 03:00N 34°25' E 135°05'714.4
2019-Jan-05 02:30N 34°29' E 135°12'713.9
2019-Jan-05 02:00N 34°33' E 135°19'4 7.4
2019-Jan-05 01:29N 34°33' E 135°24'1 1.2
2019-Jan-05 01:00N 34°34' E 135°24'0 0.0
2019-Jan-05 00:29N 34°34' E 135°24'0 0.0
2019-Jan-04 23:59N 34°34' E 135°24'0 0.0
2019-Jan-04 23:29N 34°34' E 135°24'0 0.0
2019-Jan-04 22:59N 34°34' E 135°24'0 0.0
2019-Jan-04 22:29N 34°34' E 135°24'0 0.0
2019-Jan-04 21:59N 34°34' E 135°24'0 0.0
2019-Jan-04 21:29N 34°34' E 135°24'0 0.0
2019-Jan-04 20:53N 34°34' E 135°24'0 0.0
2019-Jan-04 20:29N 34°34' E 135°24'0 0.0
2019-Jan-04 19:53N 34°34' E 135°24'0 0.0
2019-Jan-04 19:29N 34°34' E 135°24'0 0.0
2019-Jan-04 18:59N 34°34' E 135°24'0 0.0
2019-Jan-04 18:29N 34°34' E 135°24'0 0.0
2019-Jan-04 17:59N 34°34' E 135°24'0 0.0
2019-Jan-04 17:20N 34°34' E 135°24'0 0.0
2019-Jan-04 16:59N 34°34' E 135°24'0 0.0
2019-Jan-04 16:23N 34°34' E 135°24'0 0.0
2019-Jan-04 15:59N 34°34' E 135°24'0 0.0
2019-Jan-04 15:29N 34°34' E 135°24'0 0.0
2019-Jan-04 14:59N 34°34' E 135°24'0 0.0
2019-Jan-04 14:29N 34°34' E 135°24'0 0.0
2019-Jan-04 13:59N 34°34' E 135°24'0 0.0
2019-Jan-04 13:23N 34°34' E 135°24'0 0.0
2019-Jan-04 12:59N 34°34' E 135°24'0 0.0
2019-Jan-04 12:29N 34°34' E 135°24'0 0.0
2019-Jan-04 11:59N 34°34' E 135°24'0 0.0
2019-Jan-04 11:29N 34°34' E 135°24'0 0.0
2019-Jan-04 10:59N 34°34' E 135°24'0 0.0
2019-Jan-04 10:29N 34°34' E 135°24'0 0.0
2019-Jan-04 09:59N 34°34' E 135°24'0 0.0
2019-Jan-04 09:29N 34°34' E 135°24'0 0.0
2019-Jan-04 08:59N 34°34' E 135°24'0 0.0
2019-Jan-04 08:29N 34°34' E 135°24'0 0.0
2019-Jan-04 07:59N 34°34' E 135°24'0 0.0
2019-Jan-04 07:20N 34°34' E 135°24'0 0.0
2019-Jan-04 06:53N 34°34' E 135°24'0 0.0
2019-Jan-04 06:29N 34°34' E 135°24'0 0.0
2019-Jan-04 05:59N 34°34' E 135°24'0 0.0
2019-Jan-04 05:29N 34°34' E 135°24'0 0.0
2019-Jan-04 04:59N 34°34' E 135°24'0 0.0
2019-Jan-04 04:29N 34°34' E 135°24'0 0.0
2019-Jan-04 03:59N 34°34' E 135°24'0 0.0
2019-Jan-04 03:29N 34°34' E 135°24'0 0.0
2019-Jan-04 02:47N 34°34' E 135°24'0 0.0
2019-Jan-04 02:29N 34°34' E 135°24'0 0.1
2019-Jan-04 01:57N 34°34' E 135°24'1 1.6
2019-Jan-04 01:30N 34°33' E 135°24'3 6.5
2019-Jan-04 01:01N 34°33' E 135°20'4 8.4
2019-Jan-04 00:31N 34°31' E 135°15'510.3
2019-Jan-04 00:00N 34°28' E 135°10'611.7
2019-Jan-03 23:31N 34°24' E 135°05'612.8
2019-Jan-03 23:01N 34°19' E 135°00'713.0
2019-Jan-03 22:30N 34°12' E 134°59'5 9.6
2019-Jan-03 22:00N 34°08' E 134°59'3 6.8
2019-Jan-03 21:30N 34°04' E 134°58'711.0
2019-Jan-03 20:53N 33°57' E 134°58'411.8
2019-Jan-03 20:30N 33°53' E 134°57'  
Track history (hours):
 
Tides and Currents Weather Stations Pressure Air Temp Water Temp Dewpoint Dewpoint Depression Visibility Wind Speed Wind Dir Waves Ship Positions

British Trader

Last reported at 2019-Jan-05 05:32 UTC. Time now 2019-Feb-16 07:05 UTC.
Position N 33°49' E 134°55'.
Warning: this ship's position is 42 days out of date.

Length 278.9 m; beam 42.6 m; draft 12.1 m.

Type: Ship (hazmat cat A). MMSI: 235496000.

Date/timePositionNaut miles runAvg speedWind from/ knotsBaromVisibWave heightAir tempDewpointWater temp
2019-Jan-05 05:32N 33°49' E 134°55'018.2
2019-Jan-05 05:31N 33°49' E 134°55'917.8
2019-Jan-05 05:01N 33°58' E 134°56'817.0
2019-Jan-05 04:31N 34°07' E 134°57'713.9
2019-Jan-05 04:00N 34°14' E 134°58'612.3
2019-Jan-05 03:31N 34°20' E 134°60'714.0
2019-Jan-05 03:00N 34°25' E 135°05'714.4
2019-Jan-05 02:30N 34°29' E 135°12'713.9
2019-Jan-05 02:00N 34°33' E 135°19'4 7.4
2019-Jan-05 01:29N 34°33' E 135°24'1 1.2
2019-Jan-05 01:00N 34°34' E 135°24'0 0.0
2019-Jan-05 00:29N 34°34' E 135°24'0 0.0
2019-Jan-04 23:59N 34°34' E 135°24'0 0.0
2019-Jan-04 23:29N 34°34' E 135°24'0 0.0
2019-Jan-04 22:59N 34°34' E 135°24'0 0.0
2019-Jan-04 22:29N 34°34' E 135°24'0 0.0
2019-Jan-04 21:59N 34°34' E 135°24'0 0.0
2019-Jan-04 21:29N 34°34' E 135°24'0 0.0
2019-Jan-04 20:53N 34°34' E 135°24'0 0.0
2019-Jan-04 20:29N 34°34' E 135°24'0 0.0
2019-Jan-04 19:53N 34°34' E 135°24'0 0.0
2019-Jan-04 19:29N 34°34' E 135°24'0 0.0
2019-Jan-04 18:59N 34°34' E 135°24'0 0.0
2019-Jan-04 18:29N 34°34' E 135°24'0 0.0
2019-Jan-04 17:59N 34°34' E 135°24'0 0.0
2019-Jan-04 17:20N 34°34' E 135°24'0 0.0
2019-Jan-04 16:59N 34°34' E 135°24'0 0.0
2019-Jan-04 16:23N 34°34' E 135°24'0 0.0
2019-Jan-04 15:59N 34°34' E 135°24'0 0.0
2019-Jan-04 15:29N 34°34' E 135°24'0 0.0
2019-Jan-04 14:59N 34°34' E 135°24'0 0.0
2019-Jan-04 14:29N 34°34' E 135°24'0 0.0
2019-Jan-04 13:59N 34°34' E 135°24'0 0.0
2019-Jan-04 13:23N 34°34' E 135°24'0 0.0
2019-Jan-04 12:59N 34°34' E 135°24'0 0.0
2019-Jan-04 12:29N 34°34' E 135°24'0 0.0
2019-Jan-04 11:59N 34°34' E 135°24'0 0.0
2019-Jan-04 11:29N 34°34' E 135°24'0 0.0
2019-Jan-04 10:59N 34°34' E 135°24'0 0.0
2019-Jan-04 10:29N 34°34' E 135°24'0 0.0
2019-Jan-04 09:59N 34°34' E 135°24'0 0.0
2019-Jan-04 09:29N 34°34' E 135°24'0 0.0
2019-Jan-04 08:59N 34°34' E 135°24'0 0.0
2019-Jan-04 08:29N 34°34' E 135°24'0 0.0
2019-Jan-04 07:59N 34°34' E 135°24'0 0.0
2019-Jan-04 07:20N 34°34' E 135°24'0 0.0
2019-Jan-04 06:53N 34°34' E 135°24'0 0.0
2019-Jan-04 06:29N 34°34' E 135°24'0 0.0
2019-Jan-04 05:59N 34°34' E 135°24'0 0.0
2019-Jan-04 05:29N 34°34' E 135°24'0 0.0
2019-Jan-04 04:59N 34°34' E 135°24'0 0.0
2019-Jan-04 04:29N 34°34' E 135°24'0 0.0
2019-Jan-04 03:59N 34°34' E 135°24'0 0.0
2019-Jan-04 03:29N 34°34' E 135°24'0 0.0
2019-Jan-04 02:47N 34°34' E 135°24'0 0.0
2019-Jan-04 02:29N 34°34' E 135°24'0 0.1
2019-Jan-04 01:57N 34°34' E 135°24'1 1.6
2019-Jan-04 01:30N 34°33' E 135°24'3 6.5
2019-Jan-04 01:01N 34°33' E 135°20'4 8.4
2019-Jan-04 00:31N 34°31' E 135°15'510.3
2019-Jan-04 00:00N 34°28' E 135°10'611.7
2019-Jan-03 23:31N 34°24' E 135°05'612.8
2019-Jan-03 23:01N 34°19' E 135°00'713.0
2019-Jan-03 22:30N 34°12' E 134°59'5 9.6
2019-Jan-03 22:00N 34°08' E 134°59'3 6.8
2019-Jan-03 21:30N 34°04' E 134°58'711.0
2019-Jan-03 20:53N 33°57' E 134°58'411.8
2019-Jan-03 20:30N 33°53' E 134°57'  

Dump ship's entire track history